createdAt,value
2019-02-12T00:01:24.403Z,10.53
2019-02-12T00:03:54.574Z,7.30
2019-02-12T00:06:24.673Z,8.50
2019-02-12T00:08:55.035Z,10.37
2019-02-12T00:11:25.139Z,10.27
2019-02-12T00:13:55.226Z,9.67
2019-02-12T00:16:25.563Z,9.60
2019-02-12T00:18:55.764Z,5.90
2019-02-12T00:21:25.851Z,6.70
2019-02-12T00:23:56.272Z,7.13
2019-02-12T00:26:27.238Z,9.77
2019-02-12T00:28:57.293Z,8.63
2019-02-12T00:31:27.782Z,10.97
2019-02-12T00:33:57.884Z,7.80
2019-02-12T00:36:27.693Z,9.37
2019-02-12T00:38:58.301Z,8.60
2019-02-12T00:41:28.245Z,6.10
2019-02-12T00:43:58.157Z,9.83
2019-02-12T00:46:28.307Z,6.67
2019-02-12T00:48:58.182Z,7.47
2019-02-12T00:51:28.044Z,8.40
2019-02-12T00:53:58.304Z,9.13
2019-02-12T00:56:28.539Z,9.40
2019-02-12T00:58:58.816Z,8.03
2019-02-12T01:01:28.694Z,10.57
2019-02-12T01:03:58.726Z,8.60
2019-02-12T01:06:28.656Z,10.73
2019-02-12T01:08:58.589Z,8.30
2019-02-12T01:11:28.438Z,7.20
2019-02-12T01:13:58.356Z,7.70
2019-02-12T01:16:28.339Z,8.97
2019-02-12T01:18:58.962Z,14.10
2019-02-12T01:21:29.112Z,8.73
2019-02-12T01:23:59.381Z,7.27
2019-02-12T01:26:29.317Z,9.60
2019-02-12T01:28:59.254Z,6.40
2019-02-12T01:31:29.473Z,7.60
2019-02-12T01:33:59.474Z,7.30
2019-02-12T01:36:29.378Z,7.80
2019-02-12T01:38:59.570Z,12.60
2019-02-12T01:41:29.535Z,6.97
2019-02-12T01:43:59.420Z,6.83
2019-02-12T01:46:29.682Z,9.67
2019-02-12T01:48:59.558Z,6.57
2019-02-12T01:51:35.194Z,10.63
2019-02-12T01:54:02.860Z,14.10
2019-02-12T01:56:33.219Z,8.20
2019-02-12T01:59:03.713Z,8.67
2019-02-12T02:01:33.742Z,9.17
2019-02-12T02:04:04.045Z,6.70
2019-02-12T02:06:34.111Z,9.83
2019-02-12T02:09:05.727Z,11.53
2019-02-12T02:11:35.788Z,10.93
2019-02-12T02:14:05.758Z,7.57
2019-02-12T02:16:35.740Z,7.10
2019-02-12T02:19:05.642Z,10.97
2019-02-12T02:21:43.713Z,11.07
2019-02-12T02:24:07.206Z,6.47
2019-02-12T02:26:37.331Z,6.27
2019-02-12T02:29:07.775Z,11.13
2019-02-12T02:31:37.963Z,7.17
2019-02-12T02:34:08.283Z,16.40
2019-02-12T02:36:41.772Z,11.77
2019-02-12T02:39:11.862Z,12.97
2019-02-12T02:41:41.734Z,8.53
2019-02-12T02:44:11.693Z,8.97
2019-02-12T02:46:41.860Z,9.60
2019-02-12T02:49:11.719Z,14.17
2019-02-12T02:51:41.736Z,11.23
2019-02-12T02:54:11.881Z,14.90
2019-02-12T02:57:00.059Z,10.90
2019-02-12T02:59:29.913Z,14.90
2019-02-12T03:01:59.791Z,11.13
2019-02-12T03:04:29.679Z,10.90
2019-02-12T03:06:59.593Z,8.87
2019-02-12T03:09:29.462Z,12.10
2019-02-12T03:11:59.911Z,11.97
2019-02-12T03:14:30.131Z,10.93
2019-02-12T03:17:00.609Z,6.80
2019-02-12T03:19:30.513Z,12.20
2019-02-12T03:22:03.637Z,12.93
2019-02-12T03:24:32.555Z,10.83
2019-02-12T03:27:02.654Z,12.90
2019-02-12T03:29:33.181Z,14.13
2019-02-12T03:32:03.596Z,11.50
2019-02-12T03:34:33.726Z,12.20
2019-02-12T03:37:03.996Z,16.93
2019-02-12T03:39:34.108Z,13.67
2019-02-12T03:42:04.643Z,13.27
2019-02-12T03:44:34.664Z,12.70
2019-02-12T03:47:05.090Z,14.70
2019-02-12T03:49:34.961Z,9.93
2019-02-12T03:52:12.650Z,13.97
2019-02-12T03:54:37.268Z,16.23
2019-02-12T03:57:07.496Z,16.93
2019-02-12T03:59:37.924Z,11.50
2019-02-12T04:02:08.067Z,11.63
2019-02-12T04:04:38.547Z,9.37
2019-02-12T04:07:09.017Z,11.03
2019-02-12T04:09:39.604Z,10.73
2019-02-12T04:12:09.786Z,12.93
2019-02-12T04:14:39.871Z,9.43
2019-02-12T04:17:10.072Z,15.13
2019-02-12T04:19:40.545Z,7.67
2019-02-12T04:22:10.854Z,11.20
2019-02-12T04:24:40.968Z,11.77
2019-02-12T04:27:11.085Z,13.93
2019-02-12T04:29:41.435Z,15.07
2019-02-12T04:32:12.242Z,11.23
2019-02-12T04:34:42.560Z,11.50
2019-02-12T04:37:12.515Z,9.60
2019-02-12T04:39:42.736Z,13.83
2019-02-12T04:42:13.057Z,7.60
2019-02-12T04:44:43.590Z,12.47
2019-02-12T04:47:13.653Z,9.30
2019-02-12T04:49:44.140Z,11.60
2019-02-12T04:52:14.755Z,7.80
2019-02-12T04:54:45.130Z,13.10
2019-02-12T04:57:15.462Z,9.57
2019-02-12T04:59:45.845Z,9.00
2019-02-12T05:02:15.928Z,10.93
2019-02-12T05:04:46.133Z,10.50
2019-02-12T05:07:16.061Z,11.83
2019-02-12T05:09:48.694Z,17.13
2019-02-12T05:12:20.040Z,11.30
2019-02-12T05:14:50.834Z,14.10
2019-02-12T05:17:20.983Z,13.10
2019-02-12T05:19:51.204Z,12.20
2019-02-12T05:22:21.385Z,11.57
2019-02-12T05:24:51.776Z,11.27
2019-02-12T05:27:21.872Z,10.33
2019-02-12T05:29:52.069Z,8.40
2019-02-12T05:32:22.118Z,11.17
2019-02-12T05:34:52.026Z,9.27
2019-02-12T05:37:21.876Z,11.23
2019-02-12T05:39:54.092Z,10.27
2019-02-12T05:42:24.469Z,10.53
2019-02-12T05:44:54.951Z,11.37
2019-02-12T05:47:24.956Z,13.50
2019-02-12T05:49:55.173Z,11.60
2019-02-12T05:52:25.909Z,12.70
2019-02-12T05:54:56.122Z,14.03
2019-02-12T05:57:26.143Z,12.80
2019-02-12T05:59:56.186Z,14.20
2019-02-12T06:02:26.192Z,11.80
2019-02-12T06:04:56.590Z,12.63
2019-02-12T06:07:26.659Z,12.70
2019-02-12T06:09:57.097Z,10.03
2019-02-12T06:12:27.055Z,12.70
2019-02-12T06:14:57.392Z,11.67
2019-02-12T06:17:27.529Z,12.93
2019-02-12T06:19:57.791Z,8.27
2019-02-12T06:22:28.741Z,13.40
2019-02-12T06:24:58.989Z,13.87
2019-02-12T06:27:31.627Z,12.33
2019-02-12T06:30:01.896Z,12.47
2019-02-12T06:32:31.975Z,11.17
2019-02-12T06:35:02.464Z,13.17
2019-02-12T06:37:32.520Z,16.97
2019-02-12T06:40:02.544Z,11.67
2019-02-12T06:42:32.606Z,11.93
2019-02-12T06:45:03.016Z,12.43
2019-02-12T06:47:33.101Z,12.27
2019-02-12T06:50:03.261Z,17.00
2019-02-12T06:52:33.546Z,11.30
2019-02-12T06:55:03.781Z,13.50
2019-02-12T06:57:33.983Z,12.43
2019-02-12T07:00:04.703Z,12.10
2019-02-12T07:03:12.015Z,9.43
2019-02-12T07:05:51.636Z,9.47
2019-02-12T07:08:38.464Z,13.47
2019-02-12T07:11:49.846Z,17.67
2019-02-12T07:14:57.848Z,17.77
2019-02-12T07:18:06.245Z,12.80
2019-02-12T07:21:05.118Z,12.70
2019-02-12T07:24:05.119Z,11.57
2019-02-12T07:27:12.752Z,12.17
2019-02-12T07:30:04.984Z,11.63
2019-02-12T07:33:02.109Z,9.57
2019-02-12T07:36:22.745Z,11.77
2019-02-12T07:39:14.013Z,10.60
2019-02-12T07:42:22.124Z,14.30
2019-02-12T07:45:33.834Z,17.20
2019-02-12T07:48:51.246Z,10.87
2019-02-12T07:51:40.618Z,14.43
2019-02-12T07:54:35.381Z,12.30
2019-02-12T07:57:48.904Z,10.33
2019-02-12T08:00:58.845Z,10.83
2019-02-12T08:04:04.973Z,12.63
2019-02-12T08:06:57.129Z,10.80
2019-02-12T08:10:07.994Z,9.10
2019-02-12T08:13:12.436Z,13.00
2019-02-12T08:15:57.253Z,10.93
2019-02-12T08:18:39.394Z,8.77
2019-02-12T08:21:25.119Z,11.33
2019-02-12T08:24:26.195Z,9.03
2019-02-12T08:27:36.056Z,8.27
2019-02-12T08:30:37.790Z,9.17
2019-02-12T08:33:44.876Z,10.37
2019-02-12T08:37:12.494Z,8.43
2019-02-12T08:40:22.309Z,11.73
2019-02-12T08:43:07.805Z,10.50
2019-02-12T08:46:21.435Z,11.97
2019-02-12T08:49:13.282Z,11.73
2019-02-12T08:52:21.179Z,12.63
2019-02-12T08:55:12.141Z,8.60
2019-02-12T08:58:22.155Z,10.23
2019-02-12T09:01:23.123Z,8.87
2019-02-12T09:04:29.933Z,11.57
2019-02-12T09:07:12.715Z,8.27
2019-02-12T09:10:19.819Z,8.77
2019-02-12T09:13:14.600Z,12.17
2019-02-12T09:16:08.662Z,12.13
2019-02-12T09:19:45.210Z,12.55
2019-02-12T09:23:03.732Z,14.67
2019-02-12T09:25:57.972Z,9.43
2019-02-12T09:29:04.179Z,14.47
2019-02-12T09:32:10.922Z,9.40
2019-02-12T09:35:05.590Z,10.40
2019-02-12T09:38:23.983Z,10.70
2019-02-12T09:41:36.960Z,9.33
2019-02-12T09:44:45.045Z,8.37
2019-02-12T09:47:43.357Z,11.43
2019-02-12T09:50:51.391Z,11.00
2019-02-12T09:54:24.279Z,10.00
2019-02-12T09:57:36.240Z,10.37
2019-02-12T10:00:41.738Z,8.63
2019-02-12T10:03:47.083Z,11.03
2019-02-12T10:06:42.261Z,12.30
2019-02-12T10:10:06.762Z,9.17
2019-02-12T10:12:44.634Z,11.73
2019-02-12T10:15:34.975Z,16.97
2019-02-12T10:18:51.605Z,10.23
2019-02-12T10:21:54.995Z,9.60
2019-02-12T10:24:36.565Z,7.90
2019-02-12T10:27:47.361Z,7.63
2019-02-12T10:31:01.605Z,9.67
2019-02-12T10:33:32.463Z,11.13
2019-02-12T10:36:02.676Z,6.73
2019-02-12T10:38:32.937Z,8.40
2019-02-12T10:41:02.856Z,8.33
2019-02-12T10:43:32.944Z,10.17
2019-02-12T10:46:02.884Z,6.40
2019-02-12T10:48:33.157Z,8.90
2019-02-12T10:51:03.717Z,10.33
2019-02-12T10:53:33.893Z,9.30
2019-02-12T10:56:04.677Z,8.70
2019-02-12T10:58:37.016Z,13.17
2019-02-12T11:01:07.158Z,9.67
2019-02-12T11:03:37.186Z,11.77
2019-02-12T11:06:07.744Z,10.07
2019-02-12T11:08:37.910Z,8.17
2019-02-12T11:11:08.380Z,9.80
2019-02-12T11:13:38.621Z,9.27
2019-02-12T11:16:09.066Z,9.97
2019-02-12T11:18:39.444Z,12.30
2019-02-12T11:21:12.075Z,8.80
2019-02-12T11:23:41.096Z,12.80
2019-02-12T11:26:11.084Z,12.83
2019-02-12T11:28:40.996Z,14.27
2019-02-12T11:31:11.140Z,8.90
2019-02-12T11:33:41.598Z,12.40
2019-02-12T11:36:11.710Z,8.63
2019-02-12T11:38:42.058Z,9.97
2019-02-12T11:41:12.556Z,12.57
2019-02-12T11:43:42.476Z,11.57
2019-02-12T11:46:12.370Z,10.63
2019-02-12T11:48:42.571Z,8.47
2019-02-12T11:51:12.844Z,13.37
2019-02-12T11:53:42.752Z,12.07
2019-02-12T11:56:12.774Z,10.70
2019-02-12T11:58:42.874Z,10.63
2019-02-12T12:01:17.919Z,13.47
2019-02-12T12:03:47.951Z,10.43
2019-02-12T12:06:18.147Z,9.27
2019-02-12T12:08:48.309Z,10.53
2019-02-12T12:11:18.588Z,10.17
2019-02-12T12:13:49.137Z,9.13
2019-02-12T12:16:19.713Z,10.17
2019-02-12T12:18:50.070Z,11.33
2019-02-12T12:21:20.045Z,11.30
2019-02-12T12:23:50.314Z,9.43
2019-02-12T12:26:20.394Z,9.87
2019-02-12T12:28:50.425Z,11.03
2019-02-12T12:31:20.349Z,9.23
2019-02-12T12:33:50.684Z,10.00
2019-02-12T12:36:20.703Z,10.87
2019-02-12T12:38:50.893Z,12.97
2019-02-12T12:41:21.354Z,8.63
2019-02-12T12:43:51.442Z,10.63
2019-02-12T12:46:21.367Z,10.20
2019-02-12T12:48:51.625Z,10.27
2019-02-12T12:51:21.544Z,10.83
2019-02-12T12:53:51.671Z,9.63
2019-02-12T12:56:21.787Z,9.20
2019-02-12T12:58:51.786Z,12.30
2019-02-12T13:01:22.058Z,13.47
2019-02-12T13:03:51.906Z,13.43
2019-02-12T13:06:21.949Z,8.93
2019-02-12T13:08:52.129Z,10.73
2019-02-12T13:11:22.077Z,8.97
2019-02-12T13:13:52.070Z,12.13
2019-02-12T13:16:21.907Z,9.70
2019-02-12T13:18:52.257Z,7.83
2019-02-12T13:21:23.558Z,10.77
2019-02-12T13:23:53.526Z,9.87
2019-02-12T13:26:24.446Z,9.07
2019-02-12T13:28:55.382Z,10.00
2019-02-12T13:31:25.354Z,12.57
2019-02-12T13:33:55.622Z,10.47
2019-02-12T13:36:25.965Z,9.20
2019-02-12T13:38:56.490Z,11.20
2019-02-12T13:41:26.590Z,14.53
2019-02-12T13:43:56.620Z,16.30
2019-02-12T13:46:26.844Z,11.40
2019-02-12T13:48:57.593Z,8.27
2019-02-12T13:51:27.799Z,10.47
2019-02-12T13:53:58.302Z,16.80
2019-02-12T13:56:28.248Z,10.77
2019-02-12T13:58:58.313Z,10.67
2019-02-12T14:01:28.154Z,10.30
2019-02-12T14:03:58.245Z,9.63
2019-02-12T14:06:28.278Z,7.60
2019-02-12T14:08:58.573Z,7.43
2019-02-12T14:11:28.600Z,9.73
2019-02-12T14:13:59.011Z,11.50
2019-02-12T14:16:29.261Z,10.70
2019-02-12T14:18:59.341Z,8.27
2019-02-12T14:21:29.317Z,10.70
2019-02-12T14:23:59.798Z,12.73
2019-02-12T14:26:29.825Z,14.70
2019-02-12T14:28:59.954Z,11.40
2019-02-12T14:31:30.379Z,10.20
2019-02-12T14:34:00.682Z,11.90
2019-02-12T14:36:30.673Z,11.35
2019-02-12T14:39:00.636Z,11.73
2019-02-12T14:41:30.828Z,10.33
2019-02-12T14:44:01.185Z,11.77
2019-02-12T14:46:31.197Z,13.40
2019-02-12T14:49:02.275Z,17.17
2019-02-12T14:51:32.449Z,14.30
2019-02-12T14:54:02.756Z,13.80
2019-02-12T14:56:32.827Z,13.67
2019-02-12T14:59:02.908Z,16.17
2019-02-12T15:01:32.951Z,13.37
2019-02-12T15:04:03.256Z,12.67
2019-02-12T15:06:33.260Z,15.23
2019-02-12T15:09:04.564Z,12.70
2019-02-12T15:11:34.708Z,19.67
2019-02-12T15:14:05.128Z,17.23
2019-02-12T15:16:35.377Z,31.30
2019-02-12T15:19:05.567Z,17.97
2019-02-12T15:21:35.989Z,15.23
2019-02-12T15:24:07.855Z,17.90
2019-02-12T15:26:37.908Z,14.37
2019-02-12T15:29:08.230Z,13.93
2019-02-12T15:31:39.713Z,16.00
2019-02-12T15:34:10.379Z,10.97
2019-02-12T15:36:40.705Z,14.90
2019-02-12T15:39:10.718Z,13.10
2019-02-12T15:41:40.892Z,12.53
2019-02-12T15:44:11.120Z,10.03
2019-02-12T15:46:40.990Z,9.70
2019-02-12T15:49:11.375Z,12.27
2019-02-12T15:51:41.616Z,12.57
2019-02-12T15:54:11.735Z,12.80
2019-02-12T15:56:42.327Z,12.20
2019-02-12T15:59:12.808Z,13.77
2019-02-12T16:01:43.983Z,11.70
2019-02-12T16:04:13.990Z,12.93
2019-02-12T16:06:44.678Z,11.83
2019-02-12T16:09:16.090Z,9.97
2019-02-12T16:11:46.598Z,12.77
2019-02-12T16:14:16.622Z,9.47
2019-02-12T16:16:50.152Z,12.00
2019-02-12T16:19:20.503Z,10.73
2019-02-12T16:21:51.815Z,11.03
2019-02-12T16:24:22.080Z,11.47
2019-02-12T16:26:52.573Z,12.33
2019-02-12T16:29:23.085Z,9.13
2019-02-12T16:31:53.174Z,11.60
2019-02-12T16:34:23.116Z,15.38
2019-02-12T16:36:53.182Z,14.03
2019-02-12T16:39:23.214Z,12.28
2019-02-12T16:41:53.197Z,10.87
2019-02-12T16:44:23.498Z,11.70
2019-02-12T16:46:53.633Z,15.90
2019-02-12T16:49:23.713Z,8.43
2019-02-12T16:51:54.103Z,14.43
2019-02-12T16:54:24.099Z,8.63
2019-02-12T16:56:54.336Z,14.27
2019-02-12T16:59:24.655Z,9.50
2019-02-12T17:01:54.596Z,10.53
2019-02-12T17:04:24.452Z,9.03
2019-02-12T17:06:54.664Z,13.33
2019-02-12T17:09:25.035Z,15.43
2019-02-12T17:11:54.953Z,14.40
2019-02-12T17:14:25.158Z,15.13
2019-02-12T17:16:56.378Z,11.33
2019-02-12T17:19:26.406Z,7.53
2019-02-12T17:21:56.726Z,9.20
2019-02-12T17:24:28.223Z,11.80
2019-02-12T17:26:58.197Z,13.90
2019-02-12T17:29:28.552Z,7.60
2019-02-12T17:31:59.430Z,9.80
2019-02-12T17:34:29.729Z,13.87
2019-02-12T17:37:00.154Z,8.33
2019-02-12T17:39:30.128Z,8.23
2019-02-12T17:41:59.969Z,10.50
2019-02-12T17:44:30.416Z,9.47
2019-02-12T17:47:00.426Z,13.30
2019-02-12T17:49:30.465Z,9.43
2019-02-12T17:52:00.470Z,8.27
2019-02-12T17:54:30.407Z,13.20
2019-02-12T17:57:00.555Z,13.47
2019-02-12T17:59:30.543Z,12.00
2019-02-12T18:02:00.997Z,9.83
2019-02-12T18:04:31.300Z,10.03
2019-02-12T18:07:01.477Z,12.97
2019-02-12T18:09:31.868Z,11.28
2019-02-12T18:12:02.451Z,11.73
2019-02-12T18:14:32.639Z,10.33
2019-02-12T18:17:02.557Z,11.77
2019-02-12T18:19:34.129Z,9.00
2019-02-12T18:22:04.213Z,12.30
2019-02-12T18:24:34.192Z,11.27
2019-02-12T18:27:04.465Z,14.73
2019-02-12T18:29:36.855Z,15.27
2019-02-12T18:32:06.761Z,11.13
2019-02-12T18:34:36.874Z,15.73
2019-02-12T18:37:06.884Z,10.17
2019-02-12T18:39:37.886Z,16.93
2019-02-12T18:42:07.942Z,12.80
2019-02-12T18:44:37.894Z,11.90
2019-02-12T18:47:07.933Z,18.07
2019-02-12T18:49:38.439Z,17.27
2019-02-12T18:52:08.773Z,18.00
2019-02-12T18:54:39.087Z,14.60
2019-02-12T18:57:09.396Z,13.07
2019-02-12T18:59:39.711Z,12.60
2019-02-12T19:02:10.732Z,10.70
2019-02-12T19:04:40.877Z,19.70
2019-02-12T19:07:10.830Z,15.83
2019-02-12T19:09:40.955Z,17.67
2019-02-12T19:12:11.179Z,12.47
2019-02-12T19:14:41.129Z,11.40
2019-02-12T19:17:10.970Z,9.97
2019-02-12T19:19:41.037Z,15.03
2019-02-12T19:22:11.284Z,13.70
2019-02-12T19:24:41.171Z,15.57
2019-02-12T19:27:11.246Z,12.83
2019-02-12T19:29:41.447Z,15.03
2019-02-12T19:32:11.634Z,15.73
2019-02-12T19:34:41.557Z,13.23
2019-02-12T19:37:11.680Z,15.33
2019-02-12T19:39:42.346Z,15.30
2019-02-12T19:42:12.806Z,11.33
2019-02-12T19:44:43.195Z,17.80
2019-02-12T19:47:14.825Z,19.17
2019-02-12T19:49:44.921Z,24.97
2019-02-12T19:52:15.255Z,15.83
2019-02-12T19:54:45.302Z,13.67
2019-02-12T19:57:15.324Z,8.63
2019-02-12T19:59:45.410Z,13.30
2019-02-12T20:02:15.334Z,13.80
2019-02-12T20:04:46.166Z,11.97
2019-02-12T20:07:16.283Z,12.37
2019-02-12T20:09:46.303Z,11.73
2019-02-12T20:12:16.545Z,13.33
2019-02-12T20:14:46.560Z,13.67
2019-02-12T20:17:16.638Z,10.53
2019-02-12T20:19:46.928Z,13.60
2019-02-12T20:22:17.117Z,12.87
2019-02-12T20:24:47.189Z,9.93
2019-02-12T20:27:17.982Z,13.97
2019-02-12T20:29:48.217Z,11.10
2019-02-12T20:32:18.152Z,9.80
2019-02-12T20:34:48.201Z,9.03
2019-02-12T20:37:18.410Z,9.90
2019-02-12T20:39:48.508Z,11.33
2019-02-12T20:42:18.427Z,9.20
2019-02-12T20:44:48.575Z,13.40
2019-02-12T20:47:18.735Z,13.33
2019-02-12T20:49:48.795Z,18.43
2019-02-12T20:52:18.836Z,22.60
2019-02-12T20:54:49.011Z,40.17
2019-02-12T20:57:18.902Z,33.00
2019-02-12T20:59:49.069Z,25.13
2019-02-12T21:02:19.278Z,20.03
2019-02-12T21:04:49.537Z,17.53
2019-02-12T21:07:19.530Z,15.90
2019-02-12T21:09:49.732Z,14.73
2019-02-12T21:12:20.420Z,12.47
2019-02-12T21:14:50.940Z,11.00
2019-02-12T21:17:23.377Z,9.17
2019-02-12T21:19:53.425Z,10.20
2019-02-12T21:22:24.044Z,11.13
2019-02-12T21:24:54.243Z,8.90
2019-02-12T21:27:24.803Z,20.23
2019-02-12T21:29:54.789Z,14.77
2019-02-12T21:32:24.707Z,13.40
2019-02-12T21:34:55.032Z,11.03
2019-02-12T21:37:25.001Z,12.37
2019-02-12T21:39:55.149Z,9.90
2019-02-12T21:42:25.578Z,9.23
2019-02-12T21:44:56.156Z,10.30
2019-02-12T21:47:26.232Z,24.80
2019-02-12T21:49:56.112Z,38.33
2019-02-12T21:52:26.045Z,37.70
2019-02-12T21:54:55.882Z,29.67
2019-02-12T21:57:31.733Z,22.80
2019-02-12T21:59:58.196Z,21.83
2019-02-12T22:02:28.560Z,29.67
2019-02-12T22:04:59.351Z,33.10
2019-02-12T22:07:29.420Z,26.03
2019-02-12T22:09:59.686Z,15.37
2019-02-12T22:12:30.054Z,13.37
2019-02-12T22:14:59.879Z,13.43
2019-02-12T22:17:29.827Z,14.00
2019-02-12T22:19:59.659Z,12.77
2019-02-12T22:22:30.438Z,11.77
2019-02-12T22:25:00.726Z,11.63
2019-02-12T22:27:30.759Z,12.17
2019-02-12T22:30:01.422Z,11.57
2019-02-12T22:32:31.485Z,10.20
2019-02-12T22:35:01.760Z,11.43
2019-02-12T22:37:31.827Z,13.67
2019-02-12T22:40:02.069Z,16.03
2019-02-12T22:42:32.436Z,10.63
2019-02-12T22:45:02.466Z,12.97
2019-02-12T22:47:33.110Z,9.67
2019-02-12T22:50:03.125Z,10.63
2019-02-12T22:52:34.031Z,9.30
2019-02-12T22:55:04.100Z,11.43
2019-02-12T22:57:34.851Z,9.95
2019-02-12T23:00:13.343Z,9.07
2019-02-12T23:02:43.528Z,10.55
2019-02-12T23:05:13.606Z,9.70
2019-02-12T23:07:43.511Z,8.73
2019-02-12T23:10:13.490Z,8.70
2019-02-12T23:12:43.335Z,13.97
2019-02-12T23:15:13.374Z,15.63
2019-02-12T23:17:43.300Z,11.37
2019-02-12T23:20:13.815Z,22.53
2019-02-12T23:22:43.885Z,18.00
2019-02-12T23:25:13.731Z,14.23
2019-02-12T23:27:43.704Z,13.00
2019-02-12T23:30:14.151Z,12.90
2019-02-12T23:32:44.804Z,10.10
2019-02-12T23:35:15.144Z,11.17
2019-02-12T23:37:45.203Z,11.73
2019-02-12T23:40:15.115Z,15.07
2019-02-12T23:42:45.239Z,17.43
2019-02-12T23:45:15.175Z,14.67
2019-02-12T23:47:45.500Z,14.20
2019-02-12T23:50:16.038Z,14.47
2019-02-12T23:52:46.937Z,14.70
2019-02-12T23:55:17.173Z,12.40
2019-02-12T23:57:47.127Z,15.10
